ES-0152 weather

Campo de Aviación de Peralveche
Peralveche, Guadalajara, Spain

Public forecast

Using degrees Celsius for public forecast. Weather courtesy of forecast.io.

Closest aviation weather report (METAR) to Campo de Aviación de Peralveche

Closest report is Torrejón Airport, 46.8 nm (86.7 km) W. Retrieved 2019/10/18 23:00 UTC (21 minutes ago):

LETO 182300Z VRB02KT 9999 SCT040 14/12 Q1014 NOSIG

Closest aviation forecast (TAF) to Campo de Aviación de Peralveche

Closest forecast is Torrejón Airport, 46.8 nm (86.7 km) W. Retrieved 2019/10/18 18:27 UTC (5 hours ago):

TAF LETO 181700Z 1818/1918 22012KT 9999 SCT030 TX21/1915Z TN11/1906Z TEMPO 1902/1910 2000 BR BKN008 PROB30 TEMPO 1903/1908 1000 BCFG BKN003 PROB40 TEMPO 1914/1918 20015G27KT